createdAt,value
2023-02-20T00:02:56.595Z,23.89
2023-02-20T00:13:02.206Z,23.87
2023-02-20T00:23:07.378Z,23.85
2023-02-20T00:33:13.598Z,23.82
2023-02-20T00:43:19.398Z,23.80
2023-02-20T00:53:25.091Z,23.78
2023-02-20T01:03:30.444Z,23.76
2023-02-20T01:13:35.755Z,23.75
2023-02-20T01:23:40.746Z,23.73
2023-02-20T01:33:46.229Z,23.70
2023-02-20T01:43:51.783Z,23.68
2023-02-20T01:53:57.394Z,23.68
2023-02-20T02:04:02.601Z,23.66
2023-02-20T02:14:07.736Z,23.64
2023-02-20T02:24:13.270Z,23.63
2023-02-20T02:34:18.842Z,23.62
2023-02-20T02:44:23.867Z,23.60
2023-02-20T02:54:29.117Z,23.59
2023-02-20T03:04:34.388Z,23.58
2023-02-20T03:14:39.609Z,23.58
2023-02-20T03:24:44.506Z,23.57
2023-02-20T03:34:50.124Z,23.55
2023-02-20T03:44:55.960Z,23.56
2023-02-20T03:55:01.148Z,23.53
2023-02-20T04:05:06.742Z,23.52
2023-02-20T04:15:12.077Z,23.51
2023-02-20T04:25:17.228Z,23.51
2023-02-20T04:35:22.622Z,23.50
2023-02-20T04:45:27.768Z,23.48
2023-02-20T04:55:32.733Z,23.47
2023-02-20T05:05:38.283Z,23.47
2023-02-20T05:15:43.824Z,23.44
2023-02-20T05:25:49.136Z,23.44
2023-02-20T05:35:54.765Z,23.45
2023-02-20T05:46:00.210Z,23.46
2023-02-20T05:56:05.905Z,23.47
2023-02-20T06:06:13.319Z,23.46
2023-02-20T06:16:19.045Z,23.45
2023-02-20T06:26:24.403Z,23.44
2023-02-20T06:36:29.730Z,23.43
2023-02-20T06:46:34.775Z,23.43
2023-02-20T06:56:39.747Z,23.42
2023-02-20T07:06:45.341Z,23.41
2023-02-20T07:16:50.691Z,23.40
2023-02-20T07:26:56.930Z,23.40
2023-02-20T07:37:02.394Z,23.40
2023-02-20T07:47:07.729Z,23.40
2023-02-20T07:57:13.132Z,23.39
2023-02-20T08:07:18.500Z,23.39
2023-02-20T08:17:26.401Z,23.38
2023-02-20T08:27:34.805Z,23.44
2023-02-20T08:37:40.082Z,23.47
2023-02-20T08:47:45.432Z,23.52
2023-02-20T08:57:50.862Z,23.56
2023-02-20T09:07:56.442Z,23.60
2023-02-20T09:18:01.784Z,23.63
2023-02-20T09:28:07.226Z,23.64
2023-02-20T09:38:12.519Z,23.64
2023-02-20T09:48:17.668Z,23.61
2023-02-20T09:58:23.023Z,23.58
2023-02-20T10:08:28.331Z,23.56
2023-02-20T10:18:33.834Z,23.54
2023-02-20T10:28:39.869Z,23.50
2023-02-20T10:38:45.391Z,23.48
2023-02-20T10:48:51.186Z,23.46
2023-02-20T10:58:56.828Z,23.45
2023-02-20T11:09:02.167Z,23.43
2023-02-20T11:19:07.574Z,23.41
2023-02-20T11:29:12.992Z,23.40
2023-02-20T11:39:17.691Z,23.38
2023-02-20T11:49:22.758Z,23.38
2023-02-20T11:59:27.989Z,23.36
2023-02-20T12:09:33.431Z,23.34
2023-02-20T12:19:38.735Z,23.34
2023-02-20T12:29:43.912Z,23.32
2023-02-20T12:39:49.036Z,23.32
2023-02-20T12:49:54.274Z,23.31
2023-02-20T12:59:59.688Z,23.29
2023-02-20T13:10:04.783Z,23.28
2023-02-20T13:20:10.010Z,23.29
2023-02-20T13:30:15.547Z,23.32
2023-02-20T13:40:21.228Z,23.36
2023-02-20T13:50:26.464Z,23.40
2023-02-20T14:00:32.149Z,23.43
2023-02-20T14:10:37.494Z,23.44
2023-02-20T14:20:42.472Z,23.44
2023-02-20T14:30:47.802Z,23.47
2023-02-20T14:40:53.563Z,23.50
2023-02-20T14:50:59.078Z,23.61
2023-02-20T15:01:04.544Z,23.66
2023-02-20T15:11:09.676Z,23.70
2023-02-20T15:21:14.973Z,23.75
2023-02-20T15:31:20.561Z,23.76
2023-02-20T15:41:26.082Z,23.74
2023-02-20T15:51:31.202Z,23.73
2023-02-20T16:01:36.139Z,23.71
2023-02-20T16:11:41.444Z,23.70
2023-02-20T16:21:58.021Z,23.71
2023-02-20T16:31:57.627Z,23.72
2023-02-20T16:42:03.068Z,23.72
2023-02-20T16:52:08.740Z,23.72
2023-02-20T17:02:13.643Z,23.72
2023-02-20T17:12:18.782Z,23.71
2023-02-20T17:22:24.058Z,23.71
2023-02-20T17:32:30.706Z,23.70
2023-02-20T17:42:36.539Z,23.70
2023-02-20T17:52:41.969Z,23.70
2023-02-20T18:02:47.042Z,23.69
2023-02-20T18:12:52.098Z,23.67
2023-02-20T18:22:57.391Z,23.68
2023-02-20T18:33:03.848Z,23.72
2023-02-20T18:43:09.040Z,23.82
2023-02-20T18:53:14.990Z,23.86
2023-02-20T19:03:20.363Z,23.87
2023-02-20T19:13:25.774Z,23.86
2023-02-20T19:23:31.036Z,23.88
2023-02-20T19:33:36.396Z,23.90
2023-02-20T19:43:41.424Z,23.90
2023-02-20T19:53:46.943Z,23.92
2023-02-20T20:05:11.493Z,23.96
2023-02-20T20:15:15.654Z,23.98
2023-02-20T20:25:20.775Z,23.98
2023-02-20T20:35:25.960Z,24.02
2023-02-20T20:45:30.956Z,23.99
2023-02-20T20:55:36.244Z,23.96
2023-02-20T21:05:42.130Z,23.94
2023-02-20T21:15:47.360Z,23.93
2023-02-20T21:25:52.784Z,23.92
2023-02-20T21:35:57.857Z,23.90
2023-02-20T21:46:03.347Z,23.90
2023-02-20T21:56:08.660Z,23.90
2023-02-20T22:06:13.845Z,23.88
2023-02-20T22:16:19.295Z,23.87
2023-02-20T22:26:24.908Z,23.87
2023-02-20T22:36:29.852Z,23.87
2023-02-20T22:46:35.381Z,23.86
2023-02-20T22:56:40.766Z,23.86
2023-02-20T23:06:46.736Z,23.86
2023-02-20T23:16:52.345Z,23.86
2023-02-20T23:26:58.232Z,23.86
2023-02-20T23:37:03.780Z,23.85
2023-02-20T23:47:09.039Z,23.86
2023-02-20T23:57:14.464Z,23.85
